sensor_id;sensor_type;location;lat;lon;timestamp;temperature;humidity
80395;HTU21D;71133;31.962;118.754;2023-07-09T00:02:02;30.68;45.99
80395;HTU21D;71133;31.962;118.754;2023-07-09T00:04:30;30.68;46.03
80395;HTU21D;71133;31.962;118.754;2023-07-09T00:07:01;30.69;45.95
80395;HTU21D;71133;31.962;118.754;2023-07-09T00:09:29;30.69;46.22
80395;HTU21D;71133;31.962;118.754;2023-07-09T00:11:57;30.70;46.02
80395;HTU21D;71133;31.962;118.754;2023-07-09T00:14:24;30.69;46.04
80395;HTU21D;71133;31.962;118.754;2023-07-09T00:16:51;30.69;46.06
80395;HTU21D;71133;31.962;118.754;2023-07-09T00:19:21;30.70;46.09
80395;HTU21D;71133;31.962;118.754;2023-07-09T00:21:51;30.71;46.15
80395;HTU21D;71133;31.962;118.754;2023-07-09T00:24:21;30.70;46.10
80395;HTU21D;71133;31.962;118.754;2023-07-09T00:26:48;30.72;46.03
80395;HTU21D;71133;31.962;118.754;2023-07-09T00:29:16;30.71;46.00
80395;HTU21D;71133;31.962;118.754;2023-07-09T00:31:43;30.71;46.08
80395;HTU21D;71133;31.962;118.754;2023-07-09T00:34:14;30.72;46.13
80395;HTU21D;71133;31.962;118.754;2023-07-09T00:36:43;30.72;46.06
80395;HTU21D;71133;31.962;118.754;2023-07-09T00:39:21;30.70;45.80
80395;HTU21D;71133;31.962;118.754;2023-07-09T00:41:49;30.74;46.24
80395;HTU21D;71133;31.962;118.754;2023-07-09T00:44:32;30.72;45.77
80395;HTU21D;71133;31.962;118.754;2023-07-09T00:49:39;30.72;45.91
80395;HTU21D;71133;31.962;118.754;2023-07-09T00:52:37;30.72;45.75
80395;HTU21D;71133;31.962;118.754;2023-07-09T00:55:11;30.74;45.95
80395;HTU21D;71133;31.962;118.754;2023-07-09T00:57:43;30.74;46.22
80395;HTU21D;71133;31.962;118.754;2023-07-09T01:00:13;30.74;46.16
80395;HTU21D;71133;31.962;118.754;2023-07-09T01:02:45;30.74;46.31
80395;HTU21D;71133;31.962;118.754;2023-07-09T01:05:14;30.76;46.26
80395;HTU21D;71133;31.962;118.754;2023-07-09T01:07:43;30.76;46.16
80395;HTU21D;71133;31.962;118.754;2023-07-09T01:10:16;30.76;46.25
80395;HTU21D;71133;31.962;118.754;2023-07-09T01:12:45;30.76;46.26
80395;HTU21D;71133;31.962;118.754;2023-07-09T01:15:13;30.76;46.32
80395;HTU21D;71133;31.962;118.754;2023-07-09T01:17:41;30.77;46.30
80395;HTU21D;71133;31.962;118.754;2023-07-09T01:20:17;30.77;46.15
80395;HTU21D;71133;31.962;118.754;2023-07-09T01:22:51;30.77;46.18
80395;HTU21D;71133;31.962;118.754;2023-07-09T01:25:21;30.79;46.32
80395;HTU21D;71133;31.962;118.754;2023-07-09T01:27:49;30.80;46.61
80395;HTU21D;71133;31.962;118.754;2023-07-09T01:30:33;30.78;46.03
80395;HTU21D;71133;31.962;118.754;2023-07-09T01:33:02;30.80;46.46
80395;HTU21D;71133;31.962;118.754;2023-07-09T01:35:32;30.81;46.35
80395;HTU21D;71133;31.962;118.754;2023-07-09T01:37:59;30.82;46.34
80395;HTU21D;71133;31.962;118.754;2023-07-09T01:40:28;30.82;46.34
80395;HTU21D;71133;31.962;118.754;2023-07-09T01:42:56;30.83;46.23
80395;HTU21D;71133;31.962;118.754;2023-07-09T01:45:25;30.84;46.21
80395;HTU21D;71133;31.962;118.754;2023-07-09T01:47:52;30.84;46.22
80395;HTU21D;71133;31.962;118.754;2023-07-09T01:50:26;30.86;46.18
80395;HTU21D;71133;31.962;118.754;2023-07-09T01:52:54;30.85;46.12
80395;HTU21D;71133;31.962;118.754;2023-07-09T01:55:22;30.87;46.24
80395;HTU21D;71133;31.962;118.754;2023-07-09T01:57:49;30.89;46.38
80395;HTU21D;71133;31.962;118.754;2023-07-09T02:00:18;30.89;46.30
80395;HTU21D;71133;31.962;118.754;2023-07-09T02:02:46;30.90;46.25
80395;HTU21D;71133;31.962;118.754;2023-07-09T02:05:15;30.91;46.24
80395;HTU21D;71133;31.962;118.754;2023-07-09T02:07:43;30.92;46.10
80395;HTU21D;71133;31.962;118.754;2023-07-09T02:10:11;30.93;46.14
80395;HTU21D;71133;31.962;118.754;2023-07-09T02:12:38;30.94;46.17
80395;HTU21D;71133;31.962;118.754;2023-07-09T02:15:06;30.95;46.04
80395;HTU21D;71133;31.962;118.754;2023-07-09T02:17:33;30.95;46.03
80395;HTU21D;71133;31.962;118.754;2023-07-09T02:20:00;30.97;46.40
80395;HTU21D;71133;31.962;118.754;2023-07-09T02:22:27;30.95;46.26
80395;HTU21D;71133;31.962;118.754;2023-07-09T02:24:54;30.94;46.43
80395;HTU21D;71133;31.962;118.754;2023-07-09T02:27:22;30.96;46.54
80395;HTU21D;71133;31.962;118.754;2023-07-09T02:29:49;30.96;46.56
80395;HTU21D;71133;31.962;118.754;2023-07-09T02:32:27;30.96;46.25
80395;HTU21D;71133;31.962;118.754;2023-07-09T02:34:55;30.96;46.49
80395;HTU21D;71133;31.962;118.754;2023-07-09T02:37:25;30.97;46.22
80395;HTU21D;71133;31.962;118.754;2023-07-09T02:39:53;30.95;46.19
80395;HTU21D;71133;31.962;118.754;2023-07-09T02:42:22;30.95;46.23
80395;HTU21D;71133;31.962;118.754;2023-07-09T02:44:50;30.96;46.34
80395;HTU21D;71133;31.962;118.754;2023-07-09T02:47:17;30.98;46.38
80395;HTU21D;71133;31.962;118.754;2023-07-09T02:49:45;30.97;46.28
80395;HTU21D;71133;31.962;118.754;2023-07-09T02:52:12;30.98;46.51
80395;HTU21D;71133;31.962;118.754;2023-07-09T02:54:39;30.99;46.58
80395;HTU21D;71133;31.962;118.754;2023-07-09T02:57:06;31.00;46.48
80395;HTU21D;71133;31.962;118.754;2023-07-09T02:59:33;31.01;46.44
80395;HTU21D;71133;31.962;118.754;2023-07-09T03:02:01;31.00;46.43
80395;HTU21D;71133;31.962;118.754;2023-07-09T03:04:29;31.01;46.41
80395;HTU21D;71133;31.962;118.754;2023-07-09T03:06:57;31.00;46.42
80395;HTU21D;71133;31.962;118.754;2023-07-09T03:09:26;31.01;46.44
80395;HTU21D;71133;31.962;118.754;2023-07-09T03:11:54;31.02;45.03
80395;HTU21D;71133;31.962;118.754;2023-07-09T03:14:21;31.02;43.96
80395;HTU21D;71133;31.962;118.754;2023-07-09T03:16:48;31.04;43.34
80395;HTU21D;71133;31.962;118.754;2023-07-09T03:19:15;31.06;42.73
80395;HTU21D;71133;31.962;118.754;2023-07-09T03:21:42;31.06;42.12
80395;HTU21D;71133;31.962;118.754;2023-07-09T03:24:09;31.06;41.55
80395;HTU21D;71133;31.962;118.754;2023-07-09T03:26:36;31.07;41.31
80395;HTU21D;71133;31.962;118.754;2023-07-09T03:29:03;31.08;41.27
80395;HTU21D;71133;31.962;118.754;2023-07-09T03:31:31;31.10;42.10
80395;HTU21D;71133;31.962;118.754;2023-07-09T03:34:01;31.08;42.58
80395;HTU21D;71133;31.962;118.754;2023-07-09T03:36:28;31.07;41.95
80395;HTU21D;71133;31.962;118.754;2023-07-09T03:38:56;31.05;42.54
80395;HTU21D;71133;31.962;118.754;2023-07-09T03:41:23;31.05;42.47
80395;HTU21D;71133;31.962;118.754;2023-07-09T03:43:50;31.01;42.17
80395;HTU21D;71133;31.962;118.754;2023-07-09T03:46:19;31.00;41.58
80395;HTU21D;71133;31.962;118.754;2023-07-09T03:48:46;30.97;41.02
80395;HTU21D;71133;31.962;118.754;2023-07-09T03:51:13;30.96;40.41
80395;HTU21D;71133;31.962;118.754;2023-07-09T03:53:40;30.95;40.91
80395;HTU21D;71133;31.962;118.754;2023-07-09T03:56:08;30.93;40.87
80395;HTU21D;71133;31.962;118.754;2023-07-09T03:58:35;30.94;40.71
80395;HTU21D;71133;31.962;118.754;2023-07-09T04:01:03;30.93;39.93
80395;HTU21D;71133;31.962;118.754;2023-07-09T04:03:30;30.92;39.46
80395;HTU21D;71133;31.962;118.754;2023-07-09T04:05:57;30.93;40.00
80395;HTU21D;71133;31.962;118.754;2023-07-09T04:08:24;30.93;40.94
80395;HTU21D;71133;31.962;118.754;2023-07-09T04:10:54;30.93;39.39
80395;HTU21D;71133;31.962;118.754;2023-07-09T04:13:22;30.91;37.91
80395;HTU21D;71133;31.962;118.754;2023-07-09T04:15:49;30.87;37.98
80395;HTU21D;71133;31.962;118.754;2023-07-09T04:18:17;30.85;37.25
80395;HTU21D;71133;31.962;118.754;2023-07-09T04:20:47;30.83;36.91
80395;HTU21D;71133;31.962;118.754;2023-07-09T04:23:14;30.81;36.73
80395;HTU21D;71133;31.962;118.754;2023-07-09T04:25:42;30.79;37.32
80395;HTU21D;71133;31.962;118.754;2023-07-09T04:28:09;30.77;38.77
80395;HTU21D;71133;31.962;118.754;2023-07-09T04:30:36;30.78;38.20
80395;HTU21D;71133;31.962;118.754;2023-07-09T04:33:03;30.80;39.36
80395;HTU21D;71133;31.962;118.754;2023-07-09T04:35:30;30.81;39.76
80395;HTU21D;71133;31.962;118.754;2023-07-09T04:37:57;30.82;39.27
80395;HTU21D;71133;31.962;118.754;2023-07-09T04:40:24;30.81;39.81
80395;HTU21D;71133;31.962;118.754;2023-07-09T04:42:51;30.83;40.39
80395;HTU21D;71133;31.962;118.754;2023-07-09T04:45:18;30.84;40.06
80395;HTU21D;71133;31.962;118.754;2023-07-09T04:47:45;30.85;40.23
80395;HTU21D;71133;31.962;118.754;2023-07-09T04:50:12;30.85;40.40
80395;HTU21D;71133;31.962;118.754;2023-07-09T04:52:39;30.85;40.46
80395;HTU21D;71133;31.962;118.754;2023-07-09T04:55:06;30.86;40.57
80395;HTU21D;71133;31.962;118.754;2023-07-09T04:57:35;30.85;40.78
80395;HTU21D;71133;31.962;118.754;2023-07-09T05:00:03;30.85;40.69
80395;HTU21D;71133;31.962;118.754;2023-07-09T05:02:31;30.86;40.85
80395;HTU21D;71133;31.962;118.754;2023-07-09T05:04:58;30.87;40.89
80395;HTU21D;71133;31.962;118.754;2023-07-09T05:07:26;30.90;41.08
80395;HTU21D;71133;31.962;118.754;2023-07-09T05:09:53;30.90;40.97
80395;HTU21D;71133;31.962;118.754;2023-07-09T05:12:20;30.92;41.23
80395;HTU21D;71133;31.962;118.754;2023-07-09T05:14:47;30.93;41.19
80395;HTU21D;71133;31.962;118.754;2023-07-09T05:17:14;30.92;41.59
80395;HTU21D;71133;31.962;118.754;2023-07-09T05:19:41;30.92;41.49
80395;HTU21D;71133;31.962;118.754;2023-07-09T05:22:08;30.92;41.26
80395;HTU21D;71133;31.962;118.754;2023-07-09T05:24:35;30.93;40.91
80395;HTU21D;71133;31.962;118.754;2023-07-09T05:27:03;30.93;40.51
80395;HTU21D;71133;31.962;118.754;2023-07-09T05:29:30;30.93;40.29
80395;HTU21D;71133;31.962;118.754;2023-07-09T05:31:57;30.92;40.42
80395;HTU21D;71133;31.962;118.754;2023-07-09T05:34:24;30.91;40.10
80395;HTU21D;71133;31.962;118.754;2023-07-09T05:36:51;30.92;39.73
80395;HTU21D;71133;31.962;118.754;2023-07-09T05:39:18;30.92;39.06
80395;HTU21D;71133;31.962;118.754;2023-07-09T05:41:45;30.93;38.81
80395;HTU21D;71133;31.962;118.754;2023-07-09T05:44:12;30.93;39.30
80395;HTU21D;71133;31.962;118.754;2023-07-09T05:46:39;30.93;38.66
80395;HTU21D;71133;31.962;118.754;2023-07-09T05:49:07;30.93;39.03
80395;HTU21D;71133;31.962;118.754;2023-07-09T05:51:34;30.93;38.62
80395;HTU21D;71133;31.962;118.754;2023-07-09T05:54:01;30.91;38.42
80395;HTU21D;71133;31.962;118.754;2023-07-09T05:56:28;30.92;38.26
80395;HTU21D;71133;31.962;118.754;2023-07-09T05:58:55;30.93;38.30
80395;HTU21D;71133;31.962;118.754;2023-07-09T06:01:23;30.94;38.17
80395;HTU21D;71133;31.962;118.754;2023-07-09T06:03:50;30.93;37.76
80395;HTU21D;71133;31.962;118.754;2023-07-09T06:06:17;30.94;37.97
80395;HTU21D;71133;31.962;118.754;2023-07-09T06:08:44;30.95;38.05
80395;HTU21D;71133;31.962;118.754;2023-07-09T06:11:13;30.96;38.14
80395;HTU21D;71133;31.962;118.754;2023-07-09T06:13:40;30.95;37.92
80395;HTU21D;71133;31.962;118.754;2023-07-09T06:16:07;30.97;37.62
80395;HTU21D;71133;31.962;118.754;2023-07-09T06:18:34;30.96;37.96
80395;HTU21D;71133;31.962;118.754;2023-07-09T06:21:02;30.97;38.12
80395;HTU21D;71133;31.962;118.754;2023-07-09T06:23:30;30.97;37.82
80395;HTU21D;71133;31.962;118.754;2023-07-09T06:25:57;30.97;37.83
80395;HTU21D;71133;31.962;118.754;2023-07-09T06:28:26;30.97;37.96
80395;HTU21D;71133;31.962;118.754;2023-07-09T06:30:55;30.98;37.84
80395;HTU21D;71133;31.962;118.754;2023-07-09T06:33:24;31.00;37.88
80395;HTU21D;71133;31.962;118.754;2023-07-09T06:35:55;30.99;37.88
80395;HTU21D;71133;31.962;118.754;2023-07-09T06:38:22;31.01;37.72
80395;HTU21D;71133;31.962;118.754;2023-07-09T06:40:49;31.00;37.74
80395;HTU21D;71133;31.962;118.754;2023-07-09T06:43:17;31.02;37.55
80395;HTU21D;71133;31.962;118.754;2023-07-09T06:46:00;31.02;38.08
80395;HTU21D;71133;31.962;118.754;2023-07-09T06:48:29;31.04;37.61
80395;HTU21D;71133;31.962;118.754;2023-07-09T06:50:58;31.05;37.79
80395;HTU21D;71133;31.962;118.754;2023-07-09T06:53:26;31.06;37.55
80395;HTU21D;71133;31.962;118.754;2023-07-09T06:55:54;31.06;37.60
80395;HTU21D;71133;31.962;118.754;2023-07-09T06:58:30;31.05;37.88
80395;HTU21D;71133;31.962;118.754;2023-07-09T07:01:05;31.04;37.84
80395;HTU21D;71133;31.962;118.754;2023-07-09T07:03:33;31.06;37.73
80395;HTU21D;71133;31.962;118.754;2023-07-09T07:06:01;31.06;37.75
80395;HTU21D;71133;31.962;118.754;2023-07-09T07:08:29;31.08;37.75
80395;HTU21D;71133;31.962;118.754;2023-07-09T07:10:58;31.09;37.77
80395;HTU21D;71133;31.962;118.754;2023-07-09T07:13:35;31.07;37.88
80395;HTU21D;71133;31.962;118.754;2023-07-09T07:16:07;31.08;37.82
80395;HTU21D;71133;31.962;118.754;2023-07-09T07:18:34;31.08;37.88
80395;HTU21D;71133;31.962;118.754;2023-07-09T07:21:02;31.08;37.81
80395;HTU21D;71133;31.962;118.754;2023-07-09T07:23:29;31.08;37.76
80395;HTU21D;71133;31.962;118.754;2023-07-09T07:25:56;31.08;37.82
80395;HTU21D;71133;31.962;118.754;2023-07-09T07:28:23;31.09;37.78
80395;HTU21D;71133;31.962;118.754;2023-07-09T07:31:05;31.07;38.13
80395;HTU21D;71133;31.962;118.754;2023-07-09T07:33:34;31.08;37.74
80395;HTU21D;71133;31.962;118.754;2023-07-09T07:36:04;31.08;37.71
80395;HTU21D;71133;31.962;118.754;2023-07-09T07:38:31;31.08;37.77
80395;HTU21D;71133;31.962;118.754;2023-07-09T07:41:01;31.08;37.65
80395;HTU21D;71133;31.962;118.754;2023-07-09T07:43:28;31.10;37.62
80395;HTU21D;71133;31.962;118.754;2023-07-09T07:45:55;31.10;37.68
80395;HTU21D;71133;31.962;118.754;2023-07-09T07:48:23;31.11;37.59
80395;HTU21D;71133;31.962;118.754;2023-07-09T07:50:50;31.10;37.62
80395;HTU21D;71133;31.962;118.754;2023-07-09T07:53:17;31.10;37.60
80395;HTU21D;71133;31.962;118.754;2023-07-09T07:55:44;31.11;37.62
80395;HTU21D;71133;31.962;118.754;2023-07-09T07:58:12;31.12;37.59
80395;HTU21D;71133;31.962;118.754;2023-07-09T08:00:40;31.12;37.44
80395;HTU21D;71133;31.962;118.754;2023-07-09T08:03:07;31.14;37.41
80395;HTU21D;71133;31.962;118.754;2023-07-09T08:05:35;31.13;37.32
80395;HTU21D;71133;31.962;118.754;2023-07-09T08:08:02;31.14;37.20
80395;HTU21D;71133;31.962;118.754;2023-07-09T08:10:29;31.14;37.25
80395;HTU21D;71133;31.962;118.754;2023-07-09T08:12:57;31.16;37.08
80395;HTU21D;71133;31.962;118.754;2023-07-09T08:15:24;31.16;37.18
80395;HTU21D;71133;31.962;118.754;2023-07-09T08:17:51;31.16;37.21
80395;HTU21D;71133;31.962;118.754;2023-07-09T08:20:19;31.16;37.12
80395;HTU21D;71133;31.962;118.754;2023-07-09T08:22:45;31.16;37.07
80395;HTU21D;71133;31.962;118.754;2023-07-09T08:25:12;31.18;36.99
80395;HTU21D;71133;31.962;118.754;2023-07-09T08:27:40;31.16;36.93
80395;HTU21D;71133;31.962;118.754;2023-07-09T08:30:07;31.18;36.87
80395;HTU21D;71133;31.962;118.754;2023-07-09T08:32:34;31.16;36.78
80395;HTU21D;71133;31.962;118.754;2023-07-09T08:35:01;31.19;36.76
80395;HTU21D;71133;31.962;118.754;2023-07-09T08:37:29;31.19;36.67
80395;HTU21D;71133;31.962;118.754;2023-07-09T08:39:56;31.18;36.68
80395;HTU21D;71133;31.962;118.754;2023-07-09T08:42:34;31.19;37.05
80395;HTU21D;71133;31.962;118.754;2023-07-09T08:45:54;31.19;36.85
80395;HTU21D;71133;31.962;118.754;2023-07-09T08:50:57;31.16;36.78
80395;HTU21D;71133;31.962;118.754;2023-07-09T08:56:31;31.16;36.57
80395;HTU21D;71133;31.962;118.754;2023-07-09T08:59:01;31.16;36.40
80395;HTU21D;71133;31.962;118.754;2023-07-09T09:01:35;31.19;36.51
80395;HTU21D;71133;31.962;118.754;2023-07-09T09:04:26;31.18;36.98
80395;HTU21D;71133;31.962;118.754;2023-07-09T09:07:19;31.18;36.93
80395;HTU21D;71133;31.962;118.754;2023-07-09T09:09:58;31.19;36.47
80395;HTU21D;71133;31.962;118.754;2023-07-09T09:12:38;31.19;36.67
80395;HTU21D;71133;31.962;118.754;2023-07-09T09:15:14;31.18;36.59
80395;HTU21D;71133;31.962;118.754;2023-07-09T09:17:43;31.20;36.08
80395;HTU21D;71133;31.962;118.754;2023-07-09T09:20:20;31.20;36.10
80395;HTU21D;71133;31.962;118.754;2023-07-09T09:25:34;31.21;36.37
80395;HTU21D;71133;31.962;118.754;2023-07-09T09:28:02;31.22;35.77
80395;HTU21D;71133;31.962;118.754;2023-07-09T09:30:30;31.22;35.83
80395;HTU21D;71133;31.962;118.754;2023-07-09T09:33:00;31.23;35.83
80395;HTU21D;71133;31.962;118.754;2023-07-09T09:35:35;31.23;36.18
80395;HTU21D;71133;31.962;118.754;2023-07-09T09:38:12;31.22;35.92
80395;HTU21D;71133;31.962;118.754;2023-07-09T09:40:40;31.23;35.56
80395;HTU21D;71133;31.962;118.754;2023-07-09T09:43:15;31.24;35.92
80395;HTU21D;71133;31.962;118.754;2023-07-09T09:45:45;31.24;35.45
80395;HTU21D;71133;31.962;118.754;2023-07-09T09:48:26;31.24;35.77
80395;HTU21D;71133;31.962;118.754;2023-07-09T09:50:54;31.25;35.27
80395;HTU21D;71133;31.962;118.754;2023-07-09T09:53:25;31.25;35.50
80395;HTU21D;71133;31.962;118.754;2023-07-09T09:55:53;31.25;35.14
80395;HTU21D;71133;31.962;118.754;2023-07-09T09:58:28;31.25;35.42
80395;HTU21D;71133;31.962;118.754;2023-07-09T10:00:57;31.27;35.24
80395;HTU21D;71133;31.962;118.754;2023-07-09T10:03:38;31.26;35.82
80395;HTU21D;71133;31.962;118.754;2023-07-09T10:06:21;31.25;35.69
80395;HTU21D;71133;31.962;118.754;2023-07-09T10:09:01;31.27;35.56
80395;HTU21D;71133;31.962;118.754;2023-07-09T10:11:46;31.25;35.76
80395;HTU21D;71133;31.962;118.754;2023-07-09T10:16:54;31.25;35.33
80395;HTU21D;71133;31.962;118.754;2023-07-09T10:25:20;31.25;35.61
80395;HTU21D;71133;31.962;118.754;2023-07-09T10:28:00;31.24;35.48
80395;HTU21D;71133;31.962;118.754;2023-07-09T10:33:27;31.23;35.85
80395;HTU21D;71133;31.962;118.754;2023-07-09T10:38:58;31.24;35.58
80395;HTU21D;71133;31.962;118.754;2023-07-09T10:41:24;31.24;35.53
80395;HTU21D;71133;31.962;118.754;2023-07-09T10:44:21;31.24;35.98
80395;HTU21D;71133;31.962;118.754;2023-07-09T10:46:51;31.24;35.79
80395;HTU21D;71133;31.962;118.754;2023-07-09T10:49:21;31.23;35.74
80395;HTU21D;71133;31.962;118.754;2023-07-09T10:57:48;31.23;36.37
80395;HTU21D;71133;31.962;118.754;2023-07-09T11:00:21;31.23;36.14
80395;HTU21D;71133;31.962;118.754;2023-07-09T11:02:59;31.22;36.46
80395;HTU21D;71133;31.962;118.754;2023-07-09T11:05:27;31.22;36.22
80395;HTU21D;71133;31.962;118.754;2023-07-09T11:08:05;31.20;36.56
80395;HTU21D;71133;31.962;118.754;2023-07-09T11:10:41;31.19;36.63
80395;HTU21D;71133;31.962;118.754;2023-07-09T11:13:13;31.20;36.53
80395;HTU21D;71133;31.962;118.754;2023-07-09T11:15:47;31.18;36.73
80395;HTU21D;71133;31.962;118.754;2023-07-09T11:18:24;31.18;36.94
80395;HTU21D;71133;31.962;118.754;2023-07-09T11:21:05;31.19;37.11
80395;HTU21D;71133;31.962;118.754;2023-07-09T11:23:59;31.18;37.29
80395;HTU21D;71133;31.962;118.754;2023-07-09T11:26:34;31.19;37.14
80395;HTU21D;71133;31.962;118.754;2023-07-09T11:31:36;31.20;37.11
80395;HTU21D;71133;31.962;118.754;2023-07-09T11:34:16;31.19;37.37
80395;HTU21D;71133;31.962;118.754;2023-07-09T11:39:27;31.19;37.38
80395;HTU21D;71133;31.962;118.754;2023-07-09T11:41:55;31.21;37.43
80395;HTU21D;71133;31.962;118.754;2023-07-09T11:44:28;31.20;37.60
80395;HTU21D;71133;31.962;118.754;2023-07-09T11:47:12;31.20;37.77
80395;HTU21D;71133;31.962;118.754;2023-07-09T11:52:43;31.21;37.97
80395;HTU21D;71133;31.962;118.754;2023-07-09T11:55:33;31.20;38.11
80395;HTU21D;71133;31.962;118.754;2023-07-09T11:58:04;31.21;38.09
80395;HTU21D;71133;31.962;118.754;2023-07-09T12:00:54;31.21;38.34
80395;HTU21D;71133;31.962;118.754;2023-07-09T12:03:33;31.20;38.33
80395;HTU21D;71133;31.962;118.754;2023-07-09T12:06:28;31.21;38.39
80395;HTU21D;71133;31.962;118.754;2023-07-09T12:08:53;31.21;38.48
80395;HTU21D;71133;31.962;118.754;2023-07-09T12:11:26;31.20;38.57
80395;HTU21D;71133;31.962;118.754;2023-07-09T12:13:54;31.21;38.69
80395;HTU21D;71133;31.962;118.754;2023-07-09T12:18:57;31.22;38.87
80395;HTU21D;71133;31.962;118.754;2023-07-09T12:21:25;31.23;38.97
80395;HTU21D;71133;31.962;118.754;2023-07-09T12:23:54;31.23;39.07
80395;HTU21D;71133;31.962;118.754;2023-07-09T12:26:22;31.22;39.23
80395;HTU21D;71133;31.962;118.754;2023-07-09T12:28:58;31.23;39.19
80395;HTU21D;71133;31.962;118.754;2023-07-09T12:31:30;31.23;39.30
80395;HTU21D;71133;31.962;118.754;2023-07-09T12:33:58;31.23;39.45
80395;HTU21D;71133;31.962;118.754;2023-07-09T12:36:27;31.23;39.51
80395;HTU21D;71133;31.962;118.754;2023-07-09T12:39:02;31.22;39.60
80395;HTU21D;71133;31.962;118.754;2023-07-09T12:41:41;31.23;39.59
80395;HTU21D;71133;31.962;118.754;2023-07-09T12:44:23;31.21;39.65
80395;HTU21D;71133;31.962;118.754;2023-07-09T12:46:51;31.22;39.88
80395;HTU21D;71133;31.962;118.754;2023-07-09T12:49:30;31.22;39.84
80395;HTU21D;71133;31.962;118.754;2023-07-09T12:52:00;31.21;40.15
80395;HTU21D;71133;31.962;118.754;2023-07-09T12:54:30;31.23;40.10
80395;HTU21D;71133;31.962;118.754;2023-07-09T12:57:00;31.22;40.24
80395;HTU21D;71133;31.962;118.754;2023-07-09T12:59:38;31.23;40.34
80395;HTU21D;71133;31.962;118.754;2023-07-09T13:04:41;31.22;40.65
80395;HTU21D;71133;31.962;118.754;2023-07-09T13:07:41;31.22;40.48
80395;HTU21D;71133;31.962;118.754;2023-07-09T13:10:23;31.23;40.55
80395;HTU21D;71133;31.962;118.754;2023-07-09T13:12:55;31.25;40.85
80395;HTU21D;71133;31.962;118.754;2023-07-09T13:15:42;31.23;40.68
80395;HTU21D;71133;31.962;118.754;2023-07-09T13:18:15;31.24;40.80
80395;HTU21D;71133;31.962;118.754;2023-07-09T13:20:44;31.25;40.91
80395;HTU21D;71133;31.962;118.754;2023-07-09T13:23:27;31.23;40.84
80395;HTU21D;71133;31.962;118.754;2023-07-09T13:25:54;31.24;41.10
80395;HTU21D;71133;31.962;118.754;2023-07-09T13:28:29;31.23;40.97
80395;HTU21D;71133;31.962;118.754;2023-07-09T13:31:08;31.24;41.04
80395;HTU21D;71133;31.962;118.754;2023-07-09T13:33:36;31.24;41.27
80395;HTU21D;71133;31.962;118.754;2023-07-09T13:36:04;31.24;41.31
80395;HTU21D;71133;31.962;118.754;2023-07-09T13:38:33;31.22;41.35
80395;HTU21D;71133;31.962;118.754;2023-07-09T13:41:09;31.22;41.39
80395;HTU21D;71133;31.962;118.754;2023-07-09T13:43:37;31.23;41.36
80395;HTU21D;71133;31.962;118.754;2023-07-09T13:46:07;31.23;41.30
80395;HTU21D;71133;31.962;118.754;2023-07-09T13:48:36;31.24;41.12
80395;HTU21D;71133;31.962;118.754;2023-07-09T13:51:15;31.25;40.70
80395;HTU21D;71133;31.962;118.754;2023-07-09T13:53:43;31.25;40.49
80395;HTU21D;71133;31.962;118.754;2023-07-09T13:56:10;31.25;40.24
80395;HTU21D;71133;31.962;118.754;2023-07-09T13:58:38;31.25;40.20
80395;HTU21D;71133;31.962;118.754;2023-07-09T14:01:17;31.24;40.16
80395;HTU21D;71133;31.962;118.754;2023-07-09T14:03:45;31.24;40.04
80395;HTU21D;71133;31.962;118.754;2023-07-09T14:06:14;31.25;39.91
80395;HTU21D;71133;31.962;118.754;2023-07-09T14:08:42;31.26;39.83
80395;HTU21D;71133;31.962;118.754;2023-07-09T14:11:13;31.24;39.74
80395;HTU21D;71133;31.962;118.754;2023-07-09T14:13:41;31.25;39.64
80395;HTU21D;71133;31.962;118.754;2023-07-09T14:16:12;31.25;39.60
80395;HTU21D;71133;31.962;118.754;2023-07-09T14:18:39;31.24;39.54
80395;HTU21D;71133;31.962;118.754;2023-07-09T14:21:19;31.23;39.58
80395;HTU21D;71133;31.962;118.754;2023-07-09T14:23:47;31.23;39.56
80395;HTU21D;71133;31.962;118.754;2023-07-09T14:26:14;31.21;39.46
80395;HTU21D;71133;31.962;118.754;2023-07-09T14:28:41;31.21;39.49
80395;HTU21D;71133;31.962;118.754;2023-07-09T14:31:34;31.21;39.65
80395;HTU21D;71133;31.962;118.754;2023-07-09T14:34:19;31.20;39.61
80395;HTU21D;71133;31.962;118.754;2023-07-09T14:36:48;31.21;39.56
80395;HTU21D;71133;31.962;118.754;2023-07-09T14:39:15;31.20;39.43
80395;HTU21D;71133;31.962;118.754;2023-07-09T14:41:43;31.20;39.25
80395;HTU21D;71133;31.962;118.754;2023-07-09T14:44:27;31.21;39.36
80395;HTU21D;71133;31.962;118.754;2023-07-09T14:46:58;31.21;39.13
80395;HTU21D;71133;31.962;118.754;2023-07-09T14:49:26;31.22;39.10
80395;HTU21D;71133;31.962;118.754;2023-07-09T14:51:54;31.21;39.06
80395;HTU21D;71133;31.962;118.754;2023-07-09T14:54:25;31.21;38.90
80395;HTU21D;71133;31.962;118.754;2023-07-09T14:56:54;31.21;38.86
80395;HTU21D;71133;31.962;118.754;2023-07-09T14:59:21;31.22;38.69
80395;HTU21D;71133;31.962;118.754;2023-07-09T15:01:49;31.21;38.56
80395;HTU21D;71133;31.962;118.754;2023-07-09T15:06:50;31.22;38.49
80395;HTU21D;71133;31.962;118.754;2023-07-09T15:09:20;31.22;38.53
80395;HTU21D;71133;31.962;118.754;2023-07-09T15:11:57;31.21;38.71
80395;HTU21D;71133;31.962;118.754;2023-07-09T15:14:26;31.21;38.54
80395;HTU21D;71133;31.962;118.754;2023-07-09T15:16:54;31.21;38.57
80395;HTU21D;71133;31.962;118.754;2023-07-09T15:19:22;31.21;38.59
80395;HTU21D;71133;31.962;118.754;2023-07-09T15:21:50;31.21;38.72
80395;HTU21D;71133;31.962;118.754;2023-07-09T15:26:52;31.21;38.78
80395;HTU21D;71133;31.962;118.754;2023-07-09T15:29:20;31.20;38.76
80395;HTU21D;71133;31.962;118.754;2023-07-09T15:31:48;31.20;38.78
80395;HTU21D;71133;31.962;118.754;2023-07-09T15:34:16;31.21;38.76
80395;HTU21D;71133;31.962;118.754;2023-07-09T15:36:48;31.20;38.86
80395;HTU21D;71133;31.962;118.754;2023-07-09T15:39:16;31.20;38.80
80395;HTU21D;71133;31.962;118.754;2023-07-09T15:41:44;31.20;38.88
80395;HTU21D;71133;31.962;118.754;2023-07-09T15:44:13;31.21;38.98
80395;HTU21D;71133;31.962;118.754;2023-07-09T15:46:42;31.21;39.07
80395;HTU21D;71133;31.962;118.754;2023-07-09T15:49:12;31.21;39.09
80395;HTU21D;71133;31.962;118.754;2023-07-09T15:51:39;31.16;39.59
80395;HTU21D;71133;31.962;118.754;2023-07-09T15:54:21;31.15;39.63
80395;HTU21D;71133;31.962;118.754;2023-07-09T15:56:50;31.18;39.56
80395;HTU21D;71133;31.962;118.754;2023-07-09T15:59:36;31.15;40.13